sensor_id;sensor_type;location;lat;lon;timestamp;temperature;humidity
68977;SHT31;56029;52.568;13.588;2023-11-19T00:00:21;4.36;96.58
68977;SHT31;56029;52.568;13.588;2023-11-19T00:03:06;4.37;96.12
68977;SHT31;56029;52.568;13.588;2023-11-19T00:05:32;4.38;95.84
68977;SHT31;56029;52.568;13.588;2023-11-19T00:07:57;4.36;95.91
68977;SHT31;56029;52.568;13.588;2023-11-19T00:10:23;4.38;95.89
68977;SHT31;56029;52.568;13.588;2023-11-19T00:12:49;4.38;95.97
68977;SHT31;56029;52.568;13.588;2023-11-19T00:15:18;4.38;96.15
68977;SHT31;56029;52.568;13.588;2023-11-19T00:17:47;4.38;96.05
68977;SHT31;56029;52.568;13.588;2023-11-19T00:20:14;4.40;96.14
68977;SHT31;56029;52.568;13.588;2023-11-19T00:22:39;4.34;96.27
68977;SHT31;56029;52.568;13.588;2023-11-19T00:25:06;4.36;96.27
68977;SHT31;56029;52.568;13.588;2023-11-19T00:27:31;4.28;96.32
68977;SHT31;56029;52.568;13.588;2023-11-19T00:29:57;4.33;96.16
68977;SHT31;56029;52.568;13.588;2023-11-19T00:32:23;4.28;96.37
68977;SHT31;56029;52.568;13.588;2023-11-19T00:34:48;4.27;96.23
68977;SHT31;56029;52.568;13.588;2023-11-19T00:37:14;4.30;96.15
68977;SHT31;56029;52.568;13.588;2023-11-19T00:39:43;4.27;96.31
68977;SHT31;56029;52.568;13.588;2023-11-19T00:42:09;4.31;96.20
68977;SHT31;56029;52.568;13.588;2023-11-19T00:44:35;4.30;95.99
68977;SHT31;56029;52.568;13.588;2023-11-19T00:47:01;4.28;95.95
68977;SHT31;56029;52.568;13.588;2023-11-19T00:49:26;4.28;95.93
68977;SHT31;56029;52.568;13.588;2023-11-19T00:51:52;4.27;95.91
68977;SHT31;56029;52.568;13.588;2023-11-19T00:54:18;4.27;95.92
68977;SHT31;56029;52.568;13.588;2023-11-19T00:56:43;4.30;95.98
68977;SHT31;56029;52.568;13.588;2023-11-19T00:59:09;4.27;95.63
68977;SHT31;56029;52.568;13.588;2023-11-19T01:01:34;4.30;95.59
68977;SHT31;56029;52.568;13.588;2023-11-19T01:04:00;4.31;95.82
68977;SHT31;56029;52.568;13.588;2023-11-19T01:06:32;4.30;95.41
68977;SHT31;56029;52.568;13.588;2023-11-19T01:08:58;4.30;95.19
68977;SHT31;56029;52.568;13.588;2023-11-19T01:11:24;4.33;95.20
68977;SHT31;56029;52.568;13.588;2023-11-19T01:13:50;4.28;95.35
68977;SHT31;56029;52.568;13.588;2023-11-19T01:16:16;4.31;95.40
68977;SHT31;56029;52.568;13.588;2023-11-19T01:18:42;4.31;95.33
68977;SHT31;56029;52.568;13.588;2023-11-19T01:21:07;4.34;95.23
68977;SHT31;56029;52.568;13.588;2023-11-19T01:23:33;4.31;95.32
68977;SHT31;56029;52.568;13.588;2023-11-19T01:25:58;4.28;95.41
68977;SHT31;56029;52.568;13.588;2023-11-19T01:28:24;4.31;95.39
68977;SHT31;56029;52.568;13.588;2023-11-19T01:30:52;4.31;95.25
68977;SHT31;56029;52.568;13.588;2023-11-19T01:33:18;4.30;95.45
68977;SHT31;56029;52.568;13.588;2023-11-19T01:35:43;4.33;95.19
68977;SHT31;56029;52.568;13.588;2023-11-19T01:38:09;4.33;95.09
68977;SHT31;56029;52.568;13.588;2023-11-19T01:40:35;4.33;94.89
68977;SHT31;56029;52.568;13.588;2023-11-19T01:43:00;4.34;94.84
68977;SHT31;56029;52.568;13.588;2023-11-19T01:45:27;4.34;94.76
68977;SHT31;56029;52.568;13.588;2023-11-19T01:47:53;4.31;94.83
68977;SHT31;56029;52.568;13.588;2023-11-19T01:50:19;4.33;94.68
68977;SHT31;56029;52.568;13.588;2023-11-19T01:52:45;4.36;94.56
68977;SHT31;56029;52.568;13.588;2023-11-19T01:55:11;4.33;94.34
68977;SHT31;56029;52.568;13.588;2023-11-19T01:57:38;4.37;94.14
68977;SHT31;56029;52.568;13.588;2023-11-19T02:00:04;4.37;94.24
68977;SHT31;56029;52.568;13.588;2023-11-19T02:02:29;4.44;94.07
68977;SHT31;56029;52.568;13.588;2023-11-19T02:04:55;4.45;93.82
68977;SHT31;56029;52.568;13.588;2023-11-19T02:07:22;4.44;94.25
68977;SHT31;56029;52.568;13.588;2023-11-19T02:09:48;4.47;93.79
68977;SHT31;56029;52.568;13.588;2023-11-19T02:12:14;4.51;93.78
68977;SHT31;56029;52.568;13.588;2023-11-19T02:14:39;4.51;93.83
68977;SHT31;56029;52.568;13.588;2023-11-19T02:17:05;4.52;94.27
68977;SHT31;56029;52.568;13.588;2023-11-19T02:19:30;4.54;94.10
68977;SHT31;56029;52.568;13.588;2023-11-19T02:21:56;4.52;94.26
68977;SHT31;56029;52.568;13.588;2023-11-19T02:24:22;4.54;94.32
68977;SHT31;56029;52.568;13.588;2023-11-19T02:26:59;4.48;94.48
68977;SHT31;56029;52.568;13.588;2023-11-19T02:29:27;4.54;94.89
68977;SHT31;56029;52.568;13.588;2023-11-19T02:31:52;4.51;94.81
68977;SHT31;56029;52.568;13.588;2023-11-19T02:34:18;4.49;94.53
68977;SHT31;56029;52.568;13.588;2023-11-19T02:36:43;4.51;94.52
68977;SHT31;56029;52.568;13.588;2023-11-19T02:39:09;4.54;94.54
68977;SHT31;56029;52.568;13.588;2023-11-19T02:41:34;4.54;94.82
68977;SHT31;56029;52.568;13.588;2023-11-19T02:44:00;4.57;94.52
68977;SHT31;56029;52.568;13.588;2023-11-19T02:46:25;4.51;94.73
68977;SHT31;56029;52.568;13.588;2023-11-19T02:48:51;4.55;94.77
68977;SHT31;56029;52.568;13.588;2023-11-19T02:51:16;4.54;94.71
68977;SHT31;56029;52.568;13.588;2023-11-19T02:53:42;4.52;94.61
68977;SHT31;56029;52.568;13.588;2023-11-19T02:56:08;4.54;94.41
68977;SHT31;56029;52.568;13.588;2023-11-19T02:58:33;4.61;94.36
68977;SHT31;56029;52.568;13.588;2023-11-19T03:00:59;4.59;94.36
68977;SHT31;56029;52.568;13.588;2023-11-19T03:03:24;4.59;94.12
68977;SHT31;56029;52.568;13.588;2023-11-19T03:05:50;4.61;94.17
68977;SHT31;56029;52.568;13.588;2023-11-19T03:08:16;4.64;94.31
68977;SHT31;56029;52.568;13.588;2023-11-19T03:10:41;4.69;94.17
68977;SHT31;56029;52.568;13.588;2023-11-19T03:13:11;4.69;94.21
68977;SHT31;56029;52.568;13.588;2023-11-19T03:15:37;4.68;94.21
68977;SHT31;56029;52.568;13.588;2023-11-19T03:18:02;4.66;94.27
68977;SHT31;56029;52.568;13.588;2023-11-19T03:20:28;4.68;94.37
68977;SHT31;56029;52.568;13.588;2023-11-19T03:22:53;4.68;94.44
68977;SHT31;56029;52.568;13.588;2023-11-19T03:25:19;4.73;94.57
68977;SHT31;56029;52.568;13.588;2023-11-19T03:27:44;4.72;94.71
68977;SHT31;56029;52.568;13.588;2023-11-19T03:30:10;4.76;94.54
68977;SHT31;56029;52.568;13.588;2023-11-19T03:32:35;4.76;94.48
68977;SHT31;56029;52.568;13.588;2023-11-19T03:35:01;4.78;94.51
68977;SHT31;56029;52.568;13.588;2023-11-19T03:37:27;4.79;94.57
68977;SHT31;56029;52.568;13.588;2023-11-19T03:39:59;4.79;94.58
68977;SHT31;56029;52.568;13.588;2023-11-19T03:42:27;4.79;94.77
68977;SHT31;56029;52.568;13.588;2023-11-19T03:44:53;4.78;95.15
68977;SHT31;56029;52.568;13.588;2023-11-19T03:47:19;4.72;95.64
68977;SHT31;56029;52.568;13.588;2023-11-19T03:49:51;4.76;95.96
68977;SHT31;56029;52.568;13.588;2023-11-19T03:52:18;4.76;96.23
68977;SHT31;56029;52.568;13.588;2023-11-19T03:54:44;4.72;96.82
68977;SHT31;56029;52.568;13.588;2023-11-19T03:57:09;4.71;97.32
68977;SHT31;56029;52.568;13.588;2023-11-19T03:59:35;4.72;97.42
68977;SHT31;56029;52.568;13.588;2023-11-19T04:02:00;4.69;97.58
68977;SHT31;56029;52.568;13.588;2023-11-19T04:04:26;4.66;97.76
68977;SHT31;56029;52.568;13.588;2023-11-19T04:06:52;4.65;98.08
68977;SHT31;56029;52.568;13.588;2023-11-19T04:09:18;4.65;98.13
68977;SHT31;56029;52.568;13.588;2023-11-19T04:11:43;4.64;98.49
68977;SHT31;56029;52.568;13.588;2023-11-19T04:14:09;4.68;98.37
68977;SHT31;56029;52.568;13.588;2023-11-19T04:16:34;4.68;98.54
68977;SHT31;56029;52.568;13.588;2023-11-19T04:19:00;4.65;99.15
68977;SHT31;56029;52.568;13.588;2023-11-19T04:21:25;4.62;99.09
68977;SHT31;56029;52.568;13.588;2023-11-19T04:23:51;4.65;99.29
68977;SHT31;56029;52.568;13.588;2023-11-19T04:26:16;4.64;99.30
68977;SHT31;56029;52.568;13.588;2023-11-19T04:28:42;4.65;99.35
68977;SHT31;56029;52.568;13.588;2023-11-19T04:31:07;4.65;99.36
68977;SHT31;56029;52.568;13.588;2023-11-19T04:33:33;4.65;99.39
68977;SHT31;56029;52.568;13.588;2023-11-19T04:35:58;4.62;99.34
68977;SHT31;56029;52.568;13.588;2023-11-19T04:38:24;4.61;99.60
68977;SHT31;56029;52.568;13.588;2023-11-19T04:40:49;4.62;99.53
68977;SHT31;56029;52.568;13.588;2023-11-19T04:43:15;4.59;99.45
68977;SHT31;56029;52.568;13.588;2023-11-19T04:45:40;4.59;99.73
68977;SHT31;56029;52.568;13.588;2023-11-19T04:48:06;4.55;99.80
68977;SHT31;56029;52.568;13.588;2023-11-19T04:50:31;4.58;99.95
68977;SHT31;56029;52.568;13.588;2023-11-19T04:52:57;4.61;99.90
68977;SHT31;56029;52.568;13.588;2023-11-19T04:55:22;4.61;99.81
68977;SHT31;56029;52.568;13.588;2023-11-19T04:57:48;4.65;99.99
68977;SHT31;56029;52.568;13.588;2023-11-19T05:00:14;4.65;99.91
68977;SHT31;56029;52.568;13.588;2023-11-19T05:02:39;4.65;99.99
68977;SHT31;56029;52.568;13.588;2023-11-19T05:05:05;4.64;99.99
68977;SHT31;56029;52.568;13.588;2023-11-19T05:07:30;4.69;99.99
68977;SHT31;56029;52.568;13.588;2023-11-19T05:09:56;4.69;99.99
68977;SHT31;56029;52.568;13.588;2023-11-19T05:12:22;4.68;99.99
68977;SHT31;56029;52.568;13.588;2023-11-19T05:14:47;4.69;99.99
68977;SHT31;56029;52.568;13.588;2023-11-19T05:17:13;4.66;99.99
68977;SHT31;56029;52.568;13.588;2023-11-19T05:19:38;4.68;99.99
68977;SHT31;56029;52.568;13.588;2023-11-19T05:22:04;4.62;99.99
68977;SHT31;56029;52.568;13.588;2023-11-19T05:24:31;4.62;99.99
68977;SHT31;56029;52.568;13.588;2023-11-19T05:26:57;4.59;99.99
68977;SHT31;56029;52.568;13.588;2023-11-19T05:29:22;4.62;99.99
68977;SHT31;56029;52.568;13.588;2023-11-19T05:31:48;4.62;99.99
68977;SHT31;56029;52.568;13.588;2023-11-19T05:34:13;4.57;99.99
68977;SHT31;56029;52.568;13.588;2023-11-19T05:36:39;4.62;99.99
68977;SHT31;56029;52.568;13.588;2023-11-19T05:39:04;4.62;99.99
68977;SHT31;56029;52.568;13.588;2023-11-19T05:41:30;4.64;99.99
68977;SHT31;56029;52.568;13.588;2023-11-19T05:43:55;4.65;99.99
68977;SHT31;56029;52.568;13.588;2023-11-19T05:46:21;4.64;99.99
68977;SHT31;56029;52.568;13.588;2023-11-19T05:48:46;4.66;99.99
68977;SHT31;56029;52.568;13.588;2023-11-19T05:51:12;4.65;99.99
68977;SHT31;56029;52.568;13.588;2023-11-19T05:53:37;4.66;99.99
68977;SHT31;56029;52.568;13.588;2023-11-19T05:56:03;4.64;99.99
68977;SHT31;56029;52.568;13.588;2023-11-19T05:58:28;4.65;99.99
68977;SHT31;56029;52.568;13.588;2023-11-19T06:00:55;4.66;99.99
68977;SHT31;56029;52.568;13.588;2023-11-19T06:03:21;4.71;99.99
68977;SHT31;56029;52.568;13.588;2023-11-19T06:05:47;4.72;99.99
68977;SHT31;56029;52.568;13.588;2023-11-19T06:08:13;4.71;99.99
68977;SHT31;56029;52.568;13.588;2023-11-19T06:10:40;4.72;99.99
68977;SHT31;56029;52.568;13.588;2023-11-19T06:13:06;4.73;99.99
68977;SHT31;56029;52.568;13.588;2023-11-19T06:15:33;4.73;99.99
68977;SHT31;56029;52.568;13.588;2023-11-19T06:17:58;4.76;99.99
68977;SHT31;56029;52.568;13.588;2023-11-19T06:20:24;4.76;99.99
68977;SHT31;56029;52.568;13.588;2023-11-19T06:22:49;4.79;99.99
68977;SHT31;56029;52.568;13.588;2023-11-19T06:25:15;4.78;99.99
68977;SHT31;56029;52.568;13.588;2023-11-19T06:27:42;4.82;99.99
68977;SHT31;56029;52.568;13.588;2023-11-19T06:30:08;4.79;99.99
68977;SHT31;56029;52.568;13.588;2023-11-19T06:32:33;4.83;99.99
68977;SHT31;56029;52.568;13.588;2023-11-19T06:34:59;4.86;99.99
68977;SHT31;56029;52.568;13.588;2023-11-19T06:37:24;4.89;99.99
68977;SHT31;56029;52.568;13.588;2023-11-19T06:39:50;4.92;99.99
68977;SHT31;56029;52.568;13.588;2023-11-19T06:42:16;4.93;99.99
68977;SHT31;56029;52.568;13.588;2023-11-19T06:44:41;4.90;99.99
68977;SHT31;56029;52.568;13.588;2023-11-19T06:47:07;4.92;99.99
68977;SHT31;56029;52.568;13.588;2023-11-19T06:49:32;4.95;99.99
68977;SHT31;56029;52.568;13.588;2023-11-19T06:51:58;4.96;99.99
68977;SHT31;56029;52.568;13.588;2023-11-19T06:54:24;4.93;99.99
68977;SHT31;56029;52.568;13.588;2023-11-19T06:56:49;4.96;99.99
68977;SHT31;56029;52.568;13.588;2023-11-19T06:59:15;4.96;99.99
68977;SHT31;56029;52.568;13.588;2023-11-19T07:01:40;4.99;99.99
68977;SHT31;56029;52.568;13.588;2023-11-19T07:04:06;4.99;99.99
68977;SHT31;56029;52.568;13.588;2023-11-19T07:06:31;4.99;99.99
68977;SHT31;56029;52.568;13.588;2023-11-19T07:08:57;5.05;99.99
68977;SHT31;56029;52.568;13.588;2023-11-19T07:11:22;5.05;99.99
68977;SHT31;56029;52.568;13.588;2023-11-19T07:13:48;5.03;99.99
68977;SHT31;56029;52.568;13.588;2023-11-19T07:16:14;5.12;99.99
68977;SHT31;56029;52.568;13.588;2023-11-19T07:18:40;5.09;99.99
68977;SHT31;56029;52.568;13.588;2023-11-19T07:21:05;5.10;99.99
68977;SHT31;56029;52.568;13.588;2023-11-19T07:23:31;5.17;99.99
68977;SHT31;56029;52.568;13.588;2023-11-19T07:25:56;5.17;99.99
68977;SHT31;56029;52.568;13.588;2023-11-19T07:28:22;5.20;99.99
68977;SHT31;56029;52.568;13.588;2023-11-19T07:30:47;5.13;99.99
68977;SHT31;56029;52.568;13.588;2023-11-19T07:33:13;5.17;99.99
68977;SHT31;56029;52.568;13.588;2023-11-19T07:35:39;5.19;99.99
68977;SHT31;56029;52.568;13.588;2023-11-19T07:38:04;5.20;99.99
68977;SHT31;56029;52.568;13.588;2023-11-19T07:40:30;5.22;99.99
68977;SHT31;56029;52.568;13.588;2023-11-19T07:42:55;5.24;99.99
68977;SHT31;56029;52.568;13.588;2023-11-19T07:45:21;5.31;99.99
68977;SHT31;56029;52.568;13.588;2023-11-19T07:47:46;5.27;99.99
68977;SHT31;56029;52.568;13.588;2023-11-19T07:50:12;5.34;99.99
68977;SHT31;56029;52.568;13.588;2023-11-19T07:52:37;5.34;99.99
68977;SHT31;56029;52.568;13.588;2023-11-19T07:55:03;5.37;99.99
68977;SHT31;56029;52.568;13.588;2023-11-19T07:57:29;5.38;99.99
68977;SHT31;56029;52.568;13.588;2023-11-19T07:59:54;5.44;99.99
68977;SHT31;56029;52.568;13.588;2023-11-19T08:02:20;5.48;99.99
68977;SHT31;56029;52.568;13.588;2023-11-19T08:04:45;5.48;99.99
68977;SHT31;56029;52.568;13.588;2023-11-19T08:07:11;5.50;99.99
68977;SHT31;56029;52.568;13.588;2023-11-19T08:09:36;5.51;99.99
68977;SHT31;56029;52.568;13.588;2023-11-19T08:12:03;5.51;99.99
68977;SHT31;56029;52.568;13.588;2023-11-19T08:14:28;5.52;99.99
68977;SHT31;56029;52.568;13.588;2023-11-19T08:16:54;5.61;99.99
68977;SHT31;56029;52.568;13.588;2023-11-19T08:19:19;5.58;99.99
68977;SHT31;56029;52.568;13.588;2023-11-19T08:21:45;5.64;99.99
68977;SHT31;56029;52.568;13.588;2023-11-19T08:24:10;5.68;99.99
68977;SHT31;56029;52.568;13.588;2023-11-19T08:26:36;5.69;99.99
68977;SHT31;56029;52.568;13.588;2023-11-19T08:29:01;5.71;99.99
68977;SHT31;56029;52.568;13.588;2023-11-19T08:31:27;5.71;99.99
68977;SHT31;56029;52.568;13.588;2023-11-19T08:33:52;5.76;99.99
68977;SHT31;56029;52.568;13.588;2023-11-19T08:36:18;5.81;99.99
68977;SHT31;56029;52.568;13.588;2023-11-19T08:38:44;5.79;99.99
68977;SHT31;56029;52.568;13.588;2023-11-19T08:41:09;5.82;99.99
68977;SHT31;56029;52.568;13.588;2023-11-19T08:43:35;5.89;99.99
68977;SHT31;56029;52.568;13.588;2023-11-19T08:46:00;5.94;99.99
68977;SHT31;56029;52.568;13.588;2023-11-19T08:48:26;5.96;99.99
68977;SHT31;56029;52.568;13.588;2023-11-19T08:50:51;6.02;99.99
68977;SHT31;56029;52.568;13.588;2023-11-19T08:53:17;6.09;99.99
68977;SHT31;56029;52.568;13.588;2023-11-19T08:55:42;6.13;99.99
68977;SHT31;56029;52.568;13.588;2023-11-19T08:58:08;6.13;99.99
68977;SHT31;56029;52.568;13.588;2023-11-19T09:00:33;6.17;99.99
68977;SHT31;56029;52.568;13.588;2023-11-19T09:02:59;6.23;99.99
68977;SHT31;56029;52.568;13.588;2023-11-19T09:05:24;6.40;99.99
68977;SHT31;56029;52.568;13.588;2023-11-19T09:07:50;6.50;99.99
68977;SHT31;56029;52.568;13.588;2023-11-19T09:10:15;6.58;99.99
68977;SHT31;56029;52.568;13.588;2023-11-19T09:12:41;6.73;99.99
68977;SHT31;56029;52.568;13.588;2023-11-19T09:15:07;6.84;99.99
68977;SHT31;56029;52.568;13.588;2023-11-19T09:17:32;6.84;99.99
68977;SHT31;56029;52.568;13.588;2023-11-19T09:19:58;6.89;99.99
68977;SHT31;56029;52.568;13.588;2023-11-19T09:22:23;6.91;99.99
68977;SHT31;56029;52.568;13.588;2023-11-19T09:24:49;6.89;99.99
68977;SHT31;56029;52.568;13.588;2023-11-19T09:27:14;6.95;99.99
68977;SHT31;56029;52.568;13.588;2023-11-19T09:29:40;7.01;99.99
68977;SHT31;56029;52.568;13.588;2023-11-19T09:32:06;7.11;99.99
68977;SHT31;56029;52.568;13.588;2023-11-19T09:34:32;7.20;99.99
68977;SHT31;56029;52.568;13.588;2023-11-19T09:36:57;7.34;99.99
68977;SHT31;56029;52.568;13.588;2023-11-19T09:39:23;7.53;99.99
68977;SHT31;56029;52.568;13.588;2023-11-19T09:41:48;7.66;99.99
68977;SHT31;56029;52.568;13.588;2023-11-19T09:44:14;7.77;99.99
68977;SHT31;56029;52.568;13.588;2023-11-19T09:46:41;7.90;99.99
68977;SHT31;56029;52.568;13.588;2023-11-19T09:49:08;7.95;99.99
68977;SHT31;56029;52.568;13.588;2023-11-19T09:51:37;8.02;99.99
68977;SHT31;56029;52.568;13.588;2023-11-19T09:54:03;8.08;99.99
68977;SHT31;56029;52.568;13.588;2023-11-19T09:56:29;8.22;99.99
68977;SHT31;56029;52.568;13.588;2023-11-19T09:58:55;8.30;99.99
68977;SHT31;56029;52.568;13.588;2023-11-19T10:01:21;8.46;99.99
68977;SHT31;56029;52.568;13.588;2023-11-19T10:03:47;8.56;99.99
68977;SHT31;56029;52.568;13.588;2023-11-19T10:06:15;8.60;99.99
68977;SHT31;56029;52.568;13.588;2023-11-19T10:08:41;8.57;99.99
68977;SHT31;56029;52.568;13.588;2023-11-19T10:11:08;8.52;99.99
68977;SHT31;56029;52.568;13.588;2023-11-19T10:13:35;8.54;99.99
68977;SHT31;56029;52.568;13.588;2023-11-19T10:16:04;8.53;99.99
68977;SHT31;56029;52.568;13.588;2023-11-19T10:18:29;8.74;99.99
68977;SHT31;56029;52.568;13.588;2023-11-19T10:20:55;8.90;99.99
68977;SHT31;56029;52.568;13.588;2023-11-19T10:23:21;9.03;99.99
68977;SHT31;56029;52.568;13.588;2023-11-19T10:25:46;9.11;99.99
68977;SHT31;56029;52.568;13.588;2023-11-19T10:28:15;9.15;99.99
68977;SHT31;56029;52.568;13.588;2023-11-19T10:30:41;9.19;99.99
68977;SHT31;56029;52.568;13.588;2023-11-19T10:33:08;9.31;99.99
68977;SHT31;56029;52.568;13.588;2023-11-19T10:35:35;9.45;99.99
68977;SHT31;56029;52.568;13.588;2023-11-19T10:38:13;9.63;99.99
68977;SHT31;56029;52.568;13.588;2023-11-19T10:40:39;9.67;99.99
68977;SHT31;56029;52.568;13.588;2023-11-19T10:43:04;9.75;99.99
68977;SHT31;56029;52.568;13.588;2023-11-19T10:45:30;9.73;99.99
68977;SHT31;56029;52.568;13.588;2023-11-19T10:47:56;9.77;99.99
68977;SHT31;56029;52.568;13.588;2023-11-19T10:50:22;9.93;99.99
68977;SHT31;56029;52.568;13.588;2023-11-19T10:52:48;9.93;99.99
68977;SHT31;56029;52.568;13.588;2023-11-19T10:55:15;10.00;99.99
68977;SHT31;56029;52.568;13.588;2023-11-19T10:57:43;10.04;99.99
68977;SHT31;56029;52.568;13.588;2023-11-19T11:00:12;10.07;99.99
68977;SHT31;56029;52.568;13.588;2023-11-19T11:02:45;10.13;99.99
68977;SHT31;56029;52.568;13.588;2023-11-19T11:05:14;10.11;99.99
68977;SHT31;56029;52.568;13.588;2023-11-19T11:07:40;10.14;99.99
68977;SHT31;56029;52.568;13.588;2023-11-19T11:10:07;10.22;99.99
68977;SHT31;56029;52.568;13.588;2023-11-19T11:12:36;10.34;99.99
68977;SHT31;56029;52.568;13.588;2023-11-19T11:15:04;10.46;99.99
68977;SHT31;56029;52.568;13.588;2023-11-19T11:17:31;10.58;99.99
68977;SHT31;56029;52.568;13.588;2023-11-19T11:19:58;10.68;99.87
68977;SHT31;56029;52.568;13.588;2023-11-19T11:22:24;10.72;99.95
68977;SHT31;56029;52.568;13.588;2023-11-19T11:25:19;10.69;99.99
68977;SHT31;56029;52.568;13.588;2023-11-19T11:28:08;10.75;99.92
68977;SHT31;56029;52.568;13.588;2023-11-19T11:30:46;10.77;99.71
68977;SHT31;56029;52.568;13.588;2023-11-19T11:33:29;10.92;99.44
68977;SHT31;56029;52.568;13.588;2023-11-19T11:36:11;11.10;98.87
68977;SHT31;56029;52.568;13.588;2023-11-19T11:38:40;11.30;98.26
68977;SHT31;56029;52.568;13.588;2023-11-19T11:41:22;11.54;97.32
68977;SHT31;56029;52.568;13.588;2023-11-19T11:43:49;11.65;96.94
68977;SHT31;56029;52.568;13.588;2023-11-19T11:49:07;11.64;96.77
68977;SHT31;56029;52.568;13.588;2023-11-19T11:54:11;11.86;95.70
68977;SHT31;56029;52.568;13.588;2023-11-19T11:56:37;11.93;95.31
68977;SHT31;56029;52.568;13.588;2023-11-19T11:59:07;12.05;95.34
68977;SHT31;56029;52.568;13.588;2023-11-19T12:01:32;12.05;94.65
68977;SHT31;56029;52.568;13.588;2023-11-19T12:03:58;12.11;95.41
68977;SHT31;56029;52.568;13.588;2023-11-19T12:06:24;11.96;94.85
68977;SHT31;56029;52.568;13.588;2023-11-19T12:08:52;11.91;95.20
68977;SHT31;56029;52.568;13.588;2023-11-19T12:11:17;11.86;94.72
68977;SHT31;56029;52.568;13.588;2023-11-19T12:13:52;11.81;95.38
68977;SHT31;56029;52.568;13.588;2023-11-19T12:16:18;11.83;95.46
68977;SHT31;56029;52.568;13.588;2023-11-19T12:18:44;11.82;95.73
68977;SHT31;56029;52.568;13.588;2023-11-19T12:21:09;11.81;95.16
68977;SHT31;56029;52.568;13.588;2023-11-19T12:23:35;11.82;95.21
68977;SHT31;56029;52.568;13.588;2023-11-19T12:26:01;11.72;96.03
68977;SHT31;56029;52.568;13.588;2023-11-19T12:28:26;11.83;94.72
68977;SHT31;56029;52.568;13.588;2023-11-19T12:30:52;11.86;95.01
68977;SHT31;56029;52.568;13.588;2023-11-19T12:33:18;11.89;94.47
68977;SHT31;56029;52.568;13.588;2023-11-19T12:35:45;11.86;95.12
68977;SHT31;56029;52.568;13.588;2023-11-19T12:38:24;11.89;94.44
68977;SHT31;56029;52.568;13.588;2023-11-19T12:41:22;11.83;94.40
68977;SHT31;56029;52.568;13.588;2023-11-19T12:43:48;11.85;94.02
68977;SHT31;56029;52.568;13.588;2023-11-19T12:48:47;11.78;94.57
68977;SHT31;56029;52.568;13.588;2023-11-19T12:51:12;11.77;94.77
68977;SHT31;56029;52.568;13.588;2023-11-19T12:53:52;11.70;95.28
68977;SHT31;56029;52.568;13.588;2023-11-19T12:56:17;11.70;95.47
68977;SHT31;56029;52.568;13.588;2023-11-19T12:58:43;11.60;95.97
68977;SHT31;56029;52.568;13.588;2023-11-19T13:01:09;11.51;96.92
68977;SHT31;56029;52.568;13.588;2023-11-19T13:03:38;11.47;97.39
68977;SHT31;56029;52.568;13.588;2023-11-19T13:06:14;11.38;97.61
68977;SHT31;56029;52.568;13.588;2023-11-19T13:08:47;11.34;97.70
68977;SHT31;56029;52.568;13.588;2023-11-19T13:11:13;11.31;98.02
68977;SHT31;56029;52.568;13.588;2023-11-19T13:14:01;11.28;97.78
68977;SHT31;56029;52.568;13.588;2023-11-19T13:16:27;11.30;97.75
68977;SHT31;56029;52.568;13.588;2023-11-19T13:18:53;11.27;97.72
68977;SHT31;56029;52.568;13.588;2023-11-19T13:21:19;11.33;97.20
68977;SHT31;56029;52.568;13.588;2023-11-19T13:23:45;11.34;96.66
68977;SHT31;56029;52.568;13.588;2023-11-19T13:26:11;11.40;95.87
68977;SHT31;56029;52.568;13.588;2023-11-19T13:28:37;11.40;96.02
68977;SHT31;56029;52.568;13.588;2023-11-19T13:31:03;11.45;95.84
68977;SHT31;56029;52.568;13.588;2023-11-19T13:33:29;11.48;95.40
68977;SHT31;56029;52.568;13.588;2023-11-19T13:35:55;11.48;94.69
68977;SHT31;56029;52.568;13.588;2023-11-19T13:38:21;11.54;94.35
68977;SHT31;56029;52.568;13.588;2023-11-19T13:40:46;11.47;94.76
68977;SHT31;56029;52.568;13.588;2023-11-19T13:43:12;11.50;94.10
68977;SHT31;56029;52.568;13.588;2023-11-19T13:45:37;11.48;93.62
68977;SHT31;56029;52.568;13.588;2023-11-19T13:48:03;11.47;93.86
68977;SHT31;56029;52.568;13.588;2023-11-19T13:50:28;11.47;93.74
68977;SHT31;56029;52.568;13.588;2023-11-19T13:52:54;11.48;93.76
68977;SHT31;56029;52.568;13.588;2023-11-19T13:55:20;11.50;94.09
68977;SHT31;56029;52.568;13.588;2023-11-19T13:57:45;11.50;93.81
68977;SHT31;56029;52.568;13.588;2023-11-19T14:00:12;11.48;93.70
68977;SHT31;56029;52.568;13.588;2023-11-19T14:02:41;11.51;93.89
68977;SHT31;56029;52.568;13.588;2023-11-19T14:05:07;11.45;93.92
68977;SHT31;56029;52.568;13.588;2023-11-19T14:07:33;11.40;94.50
68977;SHT31;56029;52.568;13.588;2023-11-19T14:09:58;11.34;94.66
68977;SHT31;56029;52.568;13.588;2023-11-19T14:12:24;11.34;94.58
68977;SHT31;56029;52.568;13.588;2023-11-19T14:14:49;11.37;94.45
68977;SHT31;56029;52.568;13.588;2023-11-19T14:17:15;11.37;93.85
68977;SHT31;56029;52.568;13.588;2023-11-19T14:19:41;11.37;94.59
68977;SHT31;56029;52.568;13.588;2023-11-19T14:22:07;11.41;94.32
68977;SHT31;56029;52.568;13.588;2023-11-19T14:24:33;11.37;94.41
68977;SHT31;56029;52.568;13.588;2023-11-19T14:26:58;11.30;94.74
68977;SHT31;56029;52.568;13.588;2023-11-19T14:29:24;11.38;94.44
68977;SHT31;56029;52.568;13.588;2023-11-19T14:31:49;11.40;94.42
68977;SHT31;56029;52.568;13.588;2023-11-19T14:34:15;11.34;94.67
68977;SHT31;56029;52.568;13.588;2023-11-19T14:36:40;11.37;94.71
68977;SHT31;56029;52.568;13.588;2023-11-19T14:39:06;11.31;94.91
68977;SHT31;56029;52.568;13.588;2023-11-19T14:41:31;11.28;94.95
68977;SHT31;56029;52.568;13.588;2023-11-19T14:43:57;11.28;94.99
68977;SHT31;56029;52.568;13.588;2023-11-19T14:46:23;11.28;94.94
68977;SHT31;56029;52.568;13.588;2023-11-19T14:48:49;11.28;94.77
68977;SHT31;56029;52.568;13.588;2023-11-19T14:51:14;11.34;94.35
68977;SHT31;56029;52.568;13.588;2023-11-19T14:53:40;11.33;94.34
68977;SHT31;56029;52.568;13.588;2023-11-19T14:56:05;11.30;94.61
68977;SHT31;56029;52.568;13.588;2023-11-19T14:58:35;11.33;94.27
68977;SHT31;56029;52.568;13.588;2023-11-19T15:01:00;11.33;94.10
68977;SHT31;56029;52.568;13.588;2023-11-19T15:03:26;11.40;93.98
68977;SHT31;56029;52.568;13.588;2023-11-19T15:05:51;11.38;93.84
68977;SHT31;56029;52.568;13.588;2023-11-19T15:08:17;11.38;94.07
68977;SHT31;56029;52.568;13.588;2023-11-19T15:10:43;11.37;94.15
68977;SHT31;56029;52.568;13.588;2023-11-19T15:13:08;11.37;94.11
68977;SHT31;56029;52.568;13.588;2023-11-19T15:15:34;11.37;94.20
68977;SHT31;56029;52.568;13.588;2023-11-19T15:17:59;11.35;94.01
68977;SHT31;56029;52.568;13.588;2023-11-19T15:20:25;11.28;94.29
68977;SHT31;56029;52.568;13.588;2023-11-19T15:22:50;11.31;94.16
68977;SHT31;56029;52.568;13.588;2023-11-19T15:25:16;11.27;94.34
68977;SHT31;56029;52.568;13.588;2023-11-19T15:27:41;11.20;95.03
68977;SHT31;56029;52.568;13.588;2023-11-19T15:30:07;11.19;95.08